Map

Track Data

SID SEASON NUMBER BASIN SUBBASIN NAME ISO_TIME NATURE LAT LON WMO_WIND WMO_PRES WMO_AGENCY TRACK_TYPE DIST2LAND LANDFALL IFLAG USA_AGENCY USA_ATCF_ID USA_LAT USA_LON USA_RECORD USA_STATUS USA_WIND USA_PRES USA_SSHS USA_R34_NE USA_R34_SE USA_R34_SW USA_R34_NW USA_R50_NE USA_R50_SE USA_R50_SW USA_R50_NW USA_R64_NE USA_R64_SE USA_R64_SW USA_R64_NW USA_POCI USA_ROCI USA_RMW USA_EYE TOKYO_LAT TOKYO_LON TOKYO_GRADE TOKYO_WIND TOKYO_PRES TOKYO_R50_DIR TOKYO_R50_LONG TOKYO_R50_SHORT TOKYO_R30_DIR TOKYO_R30_LONG TOKYO_R30_SHORT TOKYO_LAND CMA_LAT CMA_LON CMA_CAT CMA_WIND CMA_PRES HKO_LAT HKO_LON HKO_CAT HKO_WIND HKO_PRES NEWDELHI_LAT NEWDELHI_LON NEWDELHI_GRADE NEWDELHI_WIND NEWDELHI_PRES NEWDELHI_CI NEWDELHI_DP NEWDELHI_POCI REUNION_LAT REUNION_LON REUNION_TYPE REUNION_WIND REUNION_PRES REUNION_TNUM REUNION_CI REUNION_RMW REUNION_R34_NE REUNION_R34_SE REUNION_R34_SW REUNION_R34_NW REUNION_R50_NE REUNION_R50_SE REUNION_R50_SW REUNION_R50_NW REUNION_R64_NE REUNION_R64_SE REUNION_R64_SW REUNION_R64_NW BOM_LAT BOM_LON BOM_TYPE BOM_WIND BOM_PRES BOM_TNUM BOM_CI BOM_RMW BOM_R34_NE BOM_R34_SE BOM_R34_SW BOM_R34_NW BOM_R50_NE BOM_R50_SE BOM_R50_SW BOM_R50_NW BOM_R64_NE BOM_R64_SE BOM_R64_SW BOM_R64_NW BOM_ROCI BOM_POCI BOM_EYE BOM_POS_METHOD BOM_PRES_METHOD NADI_LAT NADI_LON NADI_CAT NADI_WIND NADI_PRES WELLINGTON_LAT WELLINGTON_LON WELLINGTON_WIND WELLINGTON_PRES DS824_LAT DS824_LON DS824_STAGE DS824_WIND DS824_PRES TD9636_LAT TD9636_LON TD9636_STAGE TD9636_WIND TD9636_PRES TD9635_LAT TD9635_LON TD9635_WIND TD9635_PRES TD9635_ROCI NEUMANN_LAT NEUMANN_LON NEUMANN_CLASS NEUMANN_WIND NEUMANN_PRES MLC_LAT MLC_LON MLC_CLASS MLC_WIND MLC_PRES USA_GUST BOM_GUST BOM_GUST_PER REUNION_GUST REUNION_GUST_PER USA_SEAHGT USA_SEARAD_NE USA_SEARAD_SE USA_SEARAD_SW USA_SEARAD_NW STORM_SPEED STORM_DIR
1998295N12284 1998 89 NA CS MITCH 1998-10-22 00:00:00 TS 11.6000 -76.1000 30 1002 hurdat_atl main 125 125 O_____________ hurdat_atl AL131998 11.6000 -76.1000 TD 30 1002 -1 10 288
1998295N12284 1998 89 NA CS MITCH 1998-10-22 03:00:00 TS 11.7576 -76.5999 main 180 180 P_____________ AL131998 11.7576 -76.5999 TD 30 1002 -1 10 287
1998295N12284 1998 89 NA CS MITCH 1998-10-22 06:00:00 TS 11.9000 -77.1000 30 1002 hurdat_atl main 227 227 O_____________ hurdat_atl AL131998 11.9000 -77.1000 TD 30 1002 -1 10 284
1998295N12284 1998 89 NA CS MITCH 1998-10-22 09:00:00 TS 12.0025 -77.5750 main 277 277 P_____________ AL131998 12.0025 -77.5750 TD 30 1002 -1 8 277
1998295N12284 1998 89 NA CS MITCH 1998-10-22 12:00:00 TS 12.0000 -77.9000 30 1002 hurdat_atl main 305 281 O_____________ hurdat_atl AL131998 12.0000 -77.9000 TD 30 1002 -1 5 242
1998295N12284 1998 89 NA CS MITCH 1998-10-22 15:00:00 TS 11.7924 -77.9825 main 281 261 P_____________ AL131998 11.7924 -77.9825 TD 32 1001 -1 4 0
1998295N12284 1998 89 NA CS MITCH 1998-10-22 18:00:00 TS 11.6000 -77.9000 35 1001 hurdat_atl main 261 261 O_____________ hurdat_atl AL131998 11.6000 -77.9000 TS 35 1001 0 3 124
1998295N12284 1998 89 NA CS MITCH 1998-10-22 21:00:00 TS 11.6400 -77.7501 main 263 260 P_____________ AL131998 11.6400 -77.7501 TS 37 1000 0 4 56
1998295N12284 1998 89 NA CS MITCH 1998-10-23 00:00:00 TS 11.8000 -77.6000 40 1000 hurdat_atl main 265 265 O_____________ hurdat_atl AL131998 11.8000 -77.6000 TS 40 1000 0 4 28
1998295N12284 1998 89 NA CS MITCH 1998-10-23 03:00:00 TS 11.9925 -77.5625 main 277 277 P_____________ AL131998 11.9925 -77.5625 TS 42 999 0 4 0
1998295N12284 1998 89 NA CS MITCH 1998-10-23 06:00:00 TS 12.2000 -77.6000 45 999 hurdat_atl main 290 290 O_____________ hurdat_atl AL131998 12.2000 -77.6000 TS 45 999 0 4 341
1998295N12284 1998 89 NA CS MITCH 1998-10-23 09:00:00 TS 12.3500 -77.6850 main 313 313 P_____________ AL131998 12.3500 -77.6850 TS 45 999 0 4 327
1998295N12284 1998 89 NA CS MITCH 1998-10-23 12:00:00 TS 12.5000 -77.8000 45 999 hurdat_atl main 328 328 O_____________ hurdat_atl AL131998 12.5000 -77.8000 TS 45 999 0 4 325
1998295N12284 1998 89 NA CS MITCH 1998-10-23 15:00:00 TS 12.6850 -77.9225 main 351 351 P_____________ AL131998 12.6850 -77.9225 TS 47 998 0 4 334
1998295N12284 1998 89 NA CS MITCH 1998-10-23 18:00:00 TS 12.9000 -78.0000 50 998 hurdat_atl main 374 374 O_____________ hurdat_atl AL131998 12.9000 -78.0000 TS 50 998 0 5 353
1998295N12284 1998 89 NA CS MITCH 1998-10-23 21:00:00 TS 13.1425 -77.9725 main 390 390 P_____________ AL131998 13.1425 -77.9725 TS 52 997 0 5 11
1998295N12284 1998 89 NA CS MITCH 1998-10-24 00:00:00 TS 13.4000 -77.9000 55 997 hurdat_atl main 405 405 O_____________ hurdat_atl AL131998 13.4000 -77.9000 TS 55 997 0 5 15
1998295N12284 1998 89 NA CS MITCH 1998-10-24 03:00:00 TS 13.6425 -77.8350 main 414 414 P_____________ AL131998 13.6425 -77.8350 TS 60 993 0 5 11
1998295N12284 1998 89 NA CS MITCH 1998-10-24 06:00:00 TS 13.9000 -77.8000 65 990 hurdat_atl main 430 396 O_____________ hurdat_atl AL131998 13.9000 -77.8000 HU 65 990 1 6 3
1998295N12284 1998 89 NA CS MITCH 1998-10-24 09:00:00 TS 14.2000 -77.8275 main 396 365 P_____________ AL131998 14.2000 -77.8275 HU 70 987 1 6 351
1998295N12284 1998 89 NA CS MITCH 1998-10-24 12:00:00 TS 14.5000 -77.9000 75 985 hurdat_atl main 365 343 O_____________ hurdat_atl AL131998 14.5000 -77.9000 HU 75 985 1 6 344
1998295N12284 1998 89 NA CS MITCH 1998-10-24 15:00:00 TS 14.7575 -77.9850 main 335 317 P_____________ AL131998 14.7575 -77.9850 HU 82 982 1 5 339
1998295N12284 1998 89 NA CS MITCH 1998-10-24 18:00:00 TS 15.0000 -78.1000 90 980 hurdat_atl main 317 299 O_____________ hurdat_atl AL131998 15.0000 -78.1000 HU 90 980 2 5 335
1998295N12284 1998 89 NA CS MITCH 1998-10-24 21:00:00 TS 15.2500 -78.2276 main 299 277 P_____________ AL131998 15.2500 -78.2276 HU 95 972 2 6 330
1998295N12284 1998 89 NA CS MITCH 1998-10-25 00:00:00 TS 15.5000 -78.4000 100 965 hurdat_atl main 277 253 O_____________ hurdat_atl AL131998 15.5000 -78.4000 HU 100 965 3 6 324
1998295N12284 1998 89 NA CS MITCH 1998-10-25 03:00:00 TS 15.7725 -78.6200 main 253 242 P_____________ AL131998 15.7725 -78.6200 HU 102 958 3 7 316
1998295N12284 1998 89 NA CS MITCH 1998-10-25 06:00:00 TS 16.0000 -78.9000 105 951 hurdat_atl main 248 243 O_____________ hurdat_atl AL131998 16.0000 -78.9000 HU 105 951 3 7 301
1998295N12284 1998 89 NA CS MITCH 1998-10-25 09:00:00 TS 16.1225 -79.2351 main 249 247 P_____________ AL131998 16.1225 -79.2351 HU 110 948 3 7 287
1998295N12284 1998 89 NA CS MITCH 1998-10-25 12:00:00 TS 16.2000 -79.6000 115 945 hurdat_atl main 257 257 O_____________ hurdat_atl AL131998 16.2000 -79.6000 HU 115 945 4 7 286
1998295N12284 1998 89 NA CS MITCH 1998-10-25 15:00:00 TS 16.3149 -79.9500 main 265 265 P_____________ AL131998 16.3149 -79.9500 HU 120 935 4 7 287
1998295N12284 1998 89 NA CS MITCH 1998-10-25 18:00:00 TS 16.4000 -80.3000 125 926 hurdat_atl main 285 285 O_____________ hurdat_atl AL131998 16.4000 -80.3000 HU 125 926 4 7 279
1998295N12284 1998 89 NA CS MITCH 1998-10-25 21:00:00 TS 16.4149 -80.6426 main 308 274 P_____________ AL131998 16.4149 -80.6426 HU 127 924 4 7 270
1998295N12284 1998 89 NA CS MITCH 1998-10-26 00:00:00 TS 16.4000 -81.0000 130 923 hurdat_atl main 274 240 O_____________ hurdat_atl AL131998 16.4000 -81.0000 HU 130 923 4 7 268
1998295N12284 1998 89 NA CS MITCH 1998-10-26 03:00:00 TS 16.3850 -81.3926 main 240 209 P_____________ AL131998 16.3850 -81.3926 HU 132 922 4 8 270
1998295N12284 1998 89 NA CS MITCH 1998-10-26 06:00:00 TS 16.4000 -81.8000 135 922 hurdat_atl main 209 185 O_____________ hurdat_atl AL131998 16.4000 -81.8000 HU 135 922 4 8 277
1998295N12284 1998 89 NA CS MITCH 1998-10-26 09:00:00 TS 16.4775 -82.2224 main 185 165 P_____________ AL131998 16.4775 -82.2224 HU 140 918 5 8 285
1998295N12284 1998 89 NA CS MITCH 1998-10-26 12:00:00 TS 16.6000 -82.6000 145 914 hurdat_atl main 168 163 O_____________ hurdat_atl AL131998 16.6000 -82.6000 HU 145 914 5 7 293
1998295N12284 1998 89 NA CS MITCH 1998-10-26 15:00:00 TS 16.7423 -82.8576 main 165 165 P_____________ AL131998 16.7423 -82.8576 HU 150 909 5 6 302
1998295N12284 1998 89 NA CS MITCH 1998-10-26 18:00:00 TS 16.9000 -83.1000 155 905 hurdat_atl main 174 165 O_____________ hurdat_atl AL131998 16.9000 -83.1000 HU 155 905 5 6 300
1998295N12284 1998 89 NA CS MITCH 1998-10-26 21:00:00 TS 17.0650 -83.4424 main 174 163 P_____________ AL131998 17.0650 -83.4424 HU 155 907 5 7 294
1998295N12284 1998 89 NA CS MITCH 1998-10-27 00:00:00 TS 17.2000 -83.8000 155 910 hurdat_atl main 165 162 O_____________ hurdat_atl AL131998 17.2000 -83.8000 HU 155 910 5 7 289
1998295N12284 1998 89 NA CS MITCH 1998-10-27 03:00:00 TS 17.2874 -84.1075 main 169 159 P_____________ AL131998 17.2874 -84.1075 HU 152 913 5 6 280
1998295N12284 1998 89 NA CS MITCH 1998-10-27 06:00:00 TS 17.3000 -84.4000 150 917 hurdat_atl main 159 145 O_____________ hurdat_atl AL131998 17.3000 -84.4000 HU 150 917 5 6 264
1998295N12284 1998 89 NA CS MITCH 1998-10-27 09:00:00 TS 17.2225 -84.7151 main 145 134 P_____________ AL131998 17.2225 -84.7151 HU 150 919 5 6 251
1998295N12284 1998 89 NA CS MITCH 1998-10-27 12:00:00 TS 17.1000 -85.0000 150 922 hurdat_atl main 134 123 O_____________ hurdat_atl AL131998 17.1000 -85.0000 HU 150 922 5 5 246
1998295N12284 1998 89 NA CS MITCH 1998-10-27 15:00:00 TS 17.0075 -85.2300 main 123 111 P_____________ AL131998 17.0075 -85.2300 HU 147 925 5 4 242
1998295N12284 1998 89 NA CS MITCH 1998-10-27 18:00:00 TS 16.9000 -85.4000 145 928 hurdat_atl main 111 100 O_____________ hurdat_atl AL131998 16.9000 -85.4000 HU 145 928 5 4 229
1998295N12284 1998 89 NA CS MITCH 1998-10-27 21:00:00 TS 16.7575 -85.5300 main 100 78 P_____________ AL131998 16.7575 -85.5300 HU 142 930 5 4 212
1998295N12284 1998 89 NA CS MITCH 1998-10-28 00:00:00 TS 16.6000 -85.6000 140 933 hurdat_atl main 78 55 O_____________ hurdat_atl AL131998 16.6000 -85.6000 HU 140 933 5 3 194
1998295N12284 1998 89 NA CS MITCH 1998-10-28 03:00:00 TS 16.4275 -85.6150 main 55 44 P_____________ AL131998 16.4275 -85.6150 HU 135 935 4 3 0
1998295N12284 1998 89 NA CS MITCH 1998-10-28 06:00:00 TS 16.3000 -85.6000 130 938 hurdat_atl main 44 44 O_____________ hurdat_atl AL131998 16.3000 -85.6000 HU 130 938 4 2 0
1998295N12284 1998 89 NA CS MITCH 1998-10-28 09:00:00 TS 16.2775 -85.5925 main 44 44 P_____________ AL131998 16.2775 -85.5925 HU 122 943 4 0 0
1998295N12284 1998 89 NA CS MITCH 1998-10-28 12:00:00 TS 16.3000 -85.6000 115 948 hurdat_atl main 44 44 O_____________ hurdat_atl AL131998 16.3000 -85.6000 HU 115 948 4 1 302
1998295N12284 1998 89 NA CS MITCH 1998-10-28 15:00:00 TS 16.3075 -85.6425 main 44 44 P_____________ AL131998 16.3075 -85.6425 HU 105 953 3 1 270
1998295N12284 1998 89 NA CS MITCH 1998-10-28 18:00:00 TS 16.3000 -85.7000 95 959 hurdat_atl main 44 44 O_____________ hurdat_atl AL131998 16.3000 -85.7000 HU 95 959 2 1 246
1998295N12284 1998 89 NA CS MITCH 1998-10-28 21:00:00 TS 16.2575 -85.7575 main 44 33 P_____________ AL131998 16.2575 -85.7575 HU 90 964 2 1 223
1998295N12284 1998 89 NA CS MITCH 1998-10-29 00:00:00 TS 16.2000 -85.8000 85 970 hurdat_atl main 33 33 O_____________ hurdat_atl AL131998 16.2000 -85.8000 HU 85 970 2 1 207
1998295N12284 1998 89 NA CS MITCH 1998-10-29 03:00:00 TS 16.1575 -85.8150 main 33 22 P_____________ AL131998 16.1575 -85.8150 HU 80 974 1 1 0
1998295N12284 1998 89 NA CS MITCH 1998-10-29 06:00:00 TS 16.1000 -85.8000 75 979 hurdat_atl main 22 11 O_____________ hurdat_atl AL131998 16.1000 -85.8000 HU 75 979 1 2 160
1998295N12284 1998 89 NA CS MITCH 1998-10-29 09:00:00 TS 16.0000 -85.7575 main 11 0 P_____________ AL131998 16.0000 -85.7575 HU 72 983 1 2 153
1998295N12284 1998 89 NA NA MITCH 1998-10-29 12:00:00 TS 15.9000 -85.7000 70 987 hurdat_atl main 0 0 O_____________ hurdat_atl AL131998 15.9000 -85.7000 L HU 70 987 1 2 142
1998295N12284 1998 89 NA NA MITCH 1998-10-29 15:00:00 TS 15.8500 -85.6350 main 0 0 P_____________ AL131998 15.8500 -85.6350 HU 65 990 1 1 137
1998295N12284 1998 89 NA NA MITCH 1998-10-29 18:00:00 TS 15.8000 -85.6000 60 994 hurdat_atl main 0 0 O_____________ hurdat_atl AL131998 15.8000 -85.6000 TS 60 994 0 1 177
1998295N12284 1998 89 NA NA MITCH 1998-10-29 21:00:00 TS 15.7075 -85.6275 main 0 0 P_____________ AL131998 15.7075 -85.6275 TS 57 994 0 2 207
1998295N12284 1998 89 NA NA MITCH 1998-10-30 00:00:00 TS 15.6000 -85.7000 55 995 hurdat_atl main 0 0 O_____________ hurdat_atl AL131998 15.6000 -85.7000 TS 55 995 0 3 218
1998295N12284 1998 89 NA NA MITCH 1998-10-30 03:00:00 TS 15.5000 -85.7925 main 0 0 P_____________ AL131998 15.5000 -85.7925 TS 52 995 0 3 224
1998295N12284 1998 89 NA NA MITCH 1998-10-30 06:00:00 TS 15.4000 -85.9000 50 996 hurdat_atl main 0 0 O_____________ hurdat_atl AL131998 15.4000 -85.9000 TS 50 996 0 3 224
1998295N12284 1998 89 NA NA MITCH 1998-10-30 09:00:00 TS 15.3075 -85.9850 main 0 0 P_____________ AL131998 15.3075 -85.9850 TS 47 996 0 3 224
1998295N12284 1998 89 NA NA MITCH 1998-10-30 12:00:00 TS 15.2000 -86.1000 45 997 hurdat_atl main 0 0 O_____________ hurdat_atl AL131998 15.2000 -86.1000 TS 45 997 0 4 228
1998295N12284 1998 89 NA NA MITCH 1998-10-30 15:00:00 TS 15.0500 -86.2775 main 0 0 P_____________ AL131998 15.0500 -86.2775 TS 45 997 0 5 232
1998295N12284 1998 89 NA NA MITCH 1998-10-30 18:00:00 TS 14.9000 -86.5000 45 998 hurdat_atl main 0 0 O_____________ hurdat_atl AL131998 14.9000 -86.5000 TS 45 998 0 5 239
1998295N12284 1998 89 NA NA MITCH 1998-10-30 21:00:00 TS 14.7924 -86.7274 main 0 0 P_____________ AL131998 14.7924 -86.7274 TS 45 998 0 5 248
1998295N12284 1998 89 NA NA MITCH 1998-10-31 00:00:00 TS 14.7000 -87.0000 45 999 hurdat_atl main 0 0 O_____________ hurdat_atl AL131998 14.7000 -87.0000 TS 45 999 0 6 250
1998295N12284 1998 89 NA NA MITCH 1998-10-31 03:00:00 TS 14.5850 -87.3276 main 0 0 P_____________ AL131998 14.5850 -87.3276 TS 42 999 0 7 254
1998295N12284 1998 89 NA NA MITCH 1998-10-31 06:00:00 TS 14.5000 -87.7000 40 1000 hurdat_atl main 0 0 O_____________ hurdat_atl AL131998 14.5000 -87.7000 TS 40 1000 0 8 262
1998295N12284 1998 89 NA NA MITCH 1998-10-31 09:00:00 TS 14.4775 -88.1000 main 0 0 P_____________ AL131998 14.4775 -88.1000 TS 37 1000 0 8 270
1998295N12284 1998 89 NA NA MITCH 1998-10-31 12:00:00 TS 14.5000 -88.5000 35 1000 hurdat_atl main 0 0 O_____________ hurdat_atl AL131998 14.5000 -88.5000 TS 35 1000 0 7 276
1998295N12284 1998 89 NA NA MITCH 1998-10-31 15:00:00 TS 14.5499 -88.8499 main 0 0 P_____________ AL131998 14.5499 -88.8499 TS 32 1000 -1 7 278
1998295N12284 1998 89 NA NA MITCH 1998-10-31 18:00:00 TS 14.6000 -89.2000 30 1001 hurdat_atl main 0 0 O_____________ hurdat_atl AL131998 14.6000 -89.2000 TD 30 1001 -1 7 274
1998295N12284 1998 89 NA NA MITCH 1998-10-31 21:00:00 TS 14.6000 -89.5926 main 0 0 P_____________ AL131998 14.6000 -89.5926 TD 30 1001 -1 8 270
1998295N12284 1998 89 NA NA MITCH 1998-11-01 00:00:00 TS 14.6000 -90.0000 30 1002 hurdat_atl main 0 0 O_____________ hurdat_atl AL131998 14.6000 -90.0000 TD 30 1002 -1 8 273
1998295N12284 1998 89 NA NA MITCH 1998-11-01 03:00:00 TS 14.6350 -90.4075 main 0 0 P_____________ AL131998 14.6350 -90.4075 TD 27 1002 -1 8 277
1998295N12284 1998 89 NA NA MITCH 1998-11-01 06:00:00 TS 14.7000 -90.8000 25 1003 hurdat_atl main 0 0 O_____________ hurdat_atl AL131998 14.7000 -90.8000 TD 25 1003 -1 7 280
1998295N12284 1998 89 NA NA MITCH 1998-11-01 09:00:00 TS 14.7624 -91.1577 main 0 0 P_____________ AL131998 14.7624 -91.1577 TD 25 1004 -1 7 286
1998295N12284 1998 89 NA NA MITCH 1998-11-01 12:00:00 TS 14.9000 -91.5000 25 1005 hurdat_atl main 0 0 O_____________ hurdat_atl AL131998 14.9000 -91.5000 TD 25 1005 -1 8 300
1998295N12284 1998 89 NA NA MITCH 1998-11-01 15:00:00 TS 15.1550 -91.8650 main 0 0 P_____________ AL131998 15.1550 -91.8650 TD 25 1005 -1 9 312
1998295N12284 1998 89 NA NA MITCH 1998-11-01 18:00:00 TS 15.5000 -92.2000 25 1005 hurdat_atl main 0 0 O_____________ hurdat_atl AL131998 15.5000 -92.2000 TD 25 1005 -1 9 321
1998295N12284 1998 89 NA NA MITCH 1998-11-01 21:00:00 TS 15.8849 -92.4726 main 0 0 P_____________ AL131998 15.8849 -92.4726 TD 22 1005 -1 9 329
1998295N12284 1998 89 NA NA MITCH 1998-11-02 00:00:00 DS 16.3000 -92.7000 20 1005 hurdat_atl main 0 0 O_____________ hurdat_atl AL131998 16.3000 -92.7000 LO 20 1005 -3 9 333
1998295N12284 1998 89 NA NA MITCH 1998-11-02 03:00:00 DS 16.7000 -92.9151 main 0 0 P_____________ AL131998 16.7000 -92.9151 LO 20 1005 -3 9 334
1998295N12284 1998 89 NA NA MITCH 1998-11-02 06:00:00 DS 17.1000 -93.1000 20 1005 hurdat_atl main 0 0 O_____________ hurdat_atl AL131998 17.1000 -93.1000 LO 20 1005 -3 9 338
1998295N12284 1998 89 NA NA MITCH 1998-11-02 09:00:00 DS 17.5000 -93.2576 main 0 0 P_____________ AL131998 17.5000 -93.2576 LO 20 1005 -3 9 340
1998295N12284 1998 89 NA NA MITCH 1998-11-02 12:00:00 DS 17.9000 -93.4000 20 1005 hurdat_atl main 0 0 O_____________ hurdat_atl AL131998 17.9000 -93.4000 LO 20 1005 -3 9 339
1998295N12284 1998 89 NA NA MITCH 1998-11-02 15:00:00 DS 18.3225 -93.5948 main 0 0 P_____________ AL131998 18.3225 -93.5948 LO 20 1005 -3 9 340
1998295N12284 1998 89 NA GM MITCH 1998-11-02 18:00:00 DS 18.7000 -93.7000 20 1005 hurdat_atl main 44 44 O_____________ hurdat_atl AL131998 18.7000 -93.7000 LO 20 1005 -3 7 357
1998295N12284 1998 89 NA GM MITCH 1998-11-02 21:00:00 DS 19.0024 -93.6252 main 78 78 P_____________ AL131998 19.0024 -93.6252 LO 20 1004 -3 6 30
1998295N12284 1998 89 NA GM MITCH 1998-11-03 00:00:00 DS 19.2000 -93.4000 20 1003 hurdat_atl main 98 88 O_____________ hurdat_atl AL131998 19.2000 -93.4000 LO 20 1003 -3 6 62
1998295N12284 1998 89 NA GM MITCH 1998-11-03 03:00:00 DS 19.2801 -93.0724 main 88 78 P_____________ AL131998 19.2801 -93.0724 LO 20 1003 -3 7 81
1998295N12284 1998 89 NA GM MITCH 1998-11-03 06:00:00 DS 19.3000 -92.7000 20 1003 hurdat_atl main 78 78 O_____________ hurdat_atl AL131998 19.3000 -92.7000 LO 20 1003 -3 6 84
1998295N12284 1998 89 NA GM MITCH 1998-11-03 09:00:00 DS 19.3424 -92.3999 main 78 78 P_____________ AL131998 19.3424 -92.3999 LO 22 1002 -3 6 80
1998295N12284 1998 89 NA GM MITCH 1998-11-03 12:00:00 DS 19.4000 -92.1000 25 1002 hurdat_atl main 84 69 O_____________ hurdat_atl AL131998 19.4000 -92.1000 LO 25 1002 -3 6 77
1998295N12284 1998 89 NA GM MITCH 1998-11-03 15:00:00 DS 19.4774 -91.7649 main 74 61 P_____________ AL131998 19.4774 -91.7649 LO 32 999 -3 7 73
1998295N12284 1998 89 NA GM MITCH 1998-11-03 18:00:00 TS 19.6000 -91.4000 40 997 hurdat_atl main 61 33 O_____________ hurdat_atl AL131998 19.6000 -91.4000 TS 40 997 0 8 67
1998295N12284 1998 89 NA GM MITCH 1998-11-03 21:00:00 TS 19.7989 -90.9485 main 23 10 P_____________ AL131998 19.7989 -90.9485 TS 37 997 0 9 62
1998295N12284 1998 89 NA GM MITCH 1998-11-04 00:00:00 TS 20.0000 -90.6000 35 997 hurdat_atl main 10 0 O_____________ hurdat_atl AL131998 20.0000 -90.6000 TS 35 997 0 6 54
1998295N12284 1998 89 NA GM MITCH 1998-11-04 02:00:00 TS 20.1000 -90.5000 35 998 hurdat_atl main 0 0 O_____________ hurdat_atl AL131998 20.1000 -90.5000 L TS 35 998 0 7 47
1998295N12284 1998 89 NA NA MITCH 1998-11-04 03:00:00 TS 20.2258 -90.3464 main 0 0 P_____________ AL131998 20.2258 -90.3464 TS 33 998 -1 16 50
1998295N12284 1998 89 NA NA MITCH 1998-11-04 06:00:00 TS 20.8000 -89.6000 30 998 hurdat_atl main 0 0 O_____________ hurdat_atl AL131998 20.8000 -89.6000 TD 30 998 -1 17 52
1998295N12284 1998 89 NA NA MITCH 1998-11-04 09:00:00 TS 21.2686 -88.9245 main 0 0 P_____________ AL131998 21.2686 -88.9245 TD 35 998 0 16 53
1998295N12284 1998 89 NA GM MITCH 1998-11-04 12:00:00 TS 21.8000 -88.2000 40 998 hurdat_atl main 33 33 O_____________ hurdat_atl AL131998 21.8000 -88.2000 TS 40 998 0 19 49
1998295N12284 1998 89 NA GM MITCH 1998-11-04 15:00:00 TS 22.5124 -87.3725 main 116 116 P_____________ AL131998 22.5124 -87.3725 TS 40 995 0 22 46
1998295N12284 1998 89 NA GM MITCH 1998-11-04 18:00:00 TS 23.3000 -86.5000 40 993 hurdat_atl main 207 207 O_____________ hurdat_atl AL131998 23.3000 -86.5000 TS 40 993 0 22 45
1998295N12284 1998 89 NA GM MITCH 1998-11-04 21:00:00 TS 24.1020 -85.6501 main 233 226 P_____________ AL131998 24.1020 -85.6501 TS 42 993 0 22 46
1998295N12284 1998 89 NA GM MITCH 1998-11-05 00:00:00 TS 24.8000 -84.8000 45 993 hurdat_atl main 248 242 O_____________ hurdat_atl AL131998 24.8000 -84.8000 TS 45 993 0 19 54
1998295N12284 1998 89 NA GM MITCH 1998-11-05 03:00:00 TS 25.2576 -83.9274 main 228 141 P_____________ AL131998 25.2576 -83.9274 TS 47 991 0 17 63
1998295N12284 1998 89 NA GM MITCH 1998-11-05 06:00:00 TS 25.6000 -83.1000 50 990 hurdat_atl main 141 100 O_____________ hurdat_atl AL131998 25.6000 -83.1000 TS 50 990 0 13 67
1998295N12284 1998 89 NA GM MITCH 1998-11-05 09:00:00 TS 25.7627 -82.6219 main 86 9 P_____________ AL131998 25.7627 -82.6219 TS 52 989 0 15 61
1998295N12284 1998 89 NA GM MITCH 1998-11-05 11:00:00 TS 26.2000 -81.9000 55 989 hurdat_atl main 9 0 O_____________ hurdat_atl AL131998 26.2000 -81.9000 L TS 55 989 0 29 55
1998295N12284 1998 89 NA NA MITCH 1998-11-05 12:00:00 TS 26.6000 -81.3000 55 987 hurdat_atl main 0 0 O_____________ hurdat_atl AL131998 26.6000 -81.3000 TS 55 987 0 32 64
1998295N12284 1998 89 NA NA MITCH 1998-11-05 15:00:00 TS 27.1539 -79.7275 main 45 45 P_____________ AL131998 27.1539 -79.7275 TS 52 989 0 28 71
1998295N12284 1998 89 NA NA MITCH 1998-11-05 18:00:00 ET 27.5000 -78.3000 50 992 hurdat_atl main 185 185 O_____________ hurdat_atl AL131998 27.5000 -78.3000 EX 50 992 -4 31 62
1998295N12284 1998 89 NA NA MITCH 1998-11-05 21:00:00 ET 28.6299 -76.6525 main 370 370 P_____________ AL131998 28.6299 -76.6525 EX 50 992 -4 38 49
1998295N12284 1998 89 NA NA MITCH 1998-11-06 00:00:00 ET 30.0000 -75.0000 50 993 hurdat_atl main 518 474 O_____________ hurdat_atl AL131998 30.0000 -75.0000 EX 50 993 -4 38 46
1998295N12284 1998 89 NA NA MITCH 1998-11-06 03:00:00 ET 31.2446 -73.5444 main 479 459 P_____________ AL131998 31.2446 -73.5444 EX 50 992 -4 36 46
1998295N12284 1998 89 NA NA MITCH 1998-11-06 06:00:00 ET 32.5000 -72.0000 50 992 hurdat_atl main 478 478 O_____________ hurdat_atl AL131998 32.5000 -72.0000 EX 50 992 -4 38 48
1998295N12284 1998 89 NA NA MITCH 1998-11-06 09:00:00 ET 33.7838 -70.1465 main 540 540 P_____________ AL131998 33.7838 -70.1465 EX 50 991 -4 42 53
1998295N12284 1998 89 NA NA MITCH 1998-11-06 12:00:00 ET 35.0000 -68.0000 50 990 hurdat_atl main 683 683 O_____________ hurdat_atl AL131998 35.0000 -68.0000 EX 50 990 -4 44 59
1998295N12284 1998 89 NA NA MITCH 1998-11-06 15:00:00 ET 36.0367 -65.5682 main 739 738 P_____________ AL131998 36.0367 -65.5682 EX 50 989 -4 45 64
1998295N12284 1998 89 NA NA MITCH 1998-11-06 18:00:00 ET 37.0000 -63.0000 50 989 hurdat_atl main 748 727 O_____________ hurdat_atl AL131998 37.0000 -63.0000 EX 50 989 -4 45 64
1998295N12284 1998 89 NA NA MITCH 1998-11-06 21:00:00 ET 37.9948 -60.4933 main 732 732 P_____________ AL131998 37.9948 -60.4933 EX 50 989 -4 44 63
1998295N12284 1998 89 NA NA MITCH 1998-11-07 00:00:00 ET 39.0000 -58.0000 50 990 hurdat_atl main 735 720 O_____________ hurdat_atl AL131998 39.0000 -58.0000 EX 50 990 -4 44 62
1998295N12284 1998 89 NA NA MITCH 1998-11-07 03:00:00 ET 40.0296 -55.5330 main 736 622 P_____________ AL131998 40.0296 -55.5330 EX 50 991 -4 43 62
1998295N12284 1998 89 NA NA MITCH 1998-11-07 06:00:00 ET 41.0000 -53.0000 50 992 hurdat_atl main 622 582 O_____________ hurdat_atl AL131998 41.0000 -53.0000 EX 50 992 -4 43 67
1998295N12284 1998 89 NA NA MITCH 1998-11-07 09:00:00 ET 41.7462 -50.2729 main 591 587 P_____________ AL131998 41.7462 -50.2729 EX 50 989 -4 44 70
1998295N12284 1998 89 NA NA MITCH 1998-11-07 12:00:00 ET 42.5000 -47.5000 50 986 hurdat_atl main 640 640 O_____________ hurdat_atl AL131998 42.5000 -47.5000 EX 50 986 -4 44 67
1998295N12284 1998 89 NA NA MITCH 1998-11-07 15:00:00 ET 43.4563 -44.7460 main 744 744 P_____________ AL131998 43.4563 -44.7460 EX 55 979 -4 45 63
1998295N12284 1998 89 NA NA MITCH 1998-11-07 18:00:00 ET 44.5000 -42.0000 60 972 hurdat_atl main 879 879 O_____________ hurdat_atl AL131998 44.5000 -42.0000 EX 60 972 -4 44 63
1998295N12284 1998 89 NA NA MITCH 1998-11-07 21:00:00 ET 45.4935 -39.2405 main 1043 1043 P_____________ AL131998 45.4935 -39.2405 EX 60 973 -4 43 63
1998295N12284 1998 89 NA NA MITCH 1998-11-08 00:00:00 ET 46.5000 -36.5000 60 974 hurdat_atl main 1218 1218 O_____________ hurdat_atl AL131998 46.5000 -36.5000 EX 60 974 -4 43 62
1998295N12284 1998 89 NA NA MITCH 1998-11-08 03:00:00 ET 47.5282 -33.7812 main 1402 1402 P_____________ AL131998 47.5282 -33.7812 EX 60 973 -4 42 62
1998295N12284 1998 89 NA NA MITCH 1998-11-08 06:00:00 ET 48.5000 -31.0000 60 972 hurdat_atl main 1497 1276 O_____________ hurdat_atl AL131998 48.5000 -31.0000 EX 60 972 -4 42 68
1998295N12284 1998 89 NA NA MITCH 1998-11-08 09:00:00 ET 49.1411 -27.8940 main 1263 1043 P_____________ AL131998 49.1411 -27.8940 EX 60 967 -4 42 69
1998295N12284 1998 89 NA NA MITCH 1998-11-08 12:00:00 ET 50.0000 -25.0000 60 962 hurdat_atl main 1033 848 O_____________ hurdat_atl AL131998 50.0000 -25.0000 EX 60 962 -4 42 52
1998295N12284 1998 89 NA NA MITCH 1998-11-08 15:00:00 ET 51.6944 -22.7544 main 839 685 P_____________ AL131998 51.6944 -22.7544 EX 60 959 -4 45 39
1998295N12284 1998 89 NA NA MITCH 1998-11-08 18:00:00 ET 53.5000 -20.5000 60 956 hurdat_atl main 677 484 O_____________ hurdat_atl AL131998 53.5000 -20.5000 EX 60 956 -4 43 48
1998295N12284 1998 89 NA NA MITCH 1998-11-08 21:00:00 ET 54.5844 -17.4414 main 471 316 P_____________ AL131998 54.5844 -17.4414 EX 60 956 -4 40 60
1998295N12284 1998 89 NA NA MITCH 1998-11-09 00:00:00 ET 55.5000 -14.5000 60 956 hurdat_atl main 314 283 O_____________ hurdat_atl AL131998 55.5000 -14.5000 EX 60 956 -4 37 55
1998295N12284 1998 89 NA NA MITCH 1998-11-09 03:00:00 ET 56.6704 -12.0943 main 294 205 P_____________ AL131998 56.6704 -12.0943 EX 60 956 -4 33 41
1998295N12284 1998 89 NA NA MITCH 1998-11-09 06:00:00 ET 58.0000 -10.5000 60 956 hurdat_atl main 199 187 O_____________ hurdat_atl AL131998 58.0000 -10.5000 EX 60 956 -4 30 19
1998295N12284 1998 89 NA NA MITCH 1998-11-09 09:00:00 ET 59.4876 -10.2532 main 239 239 P_____________ AL131998 59.4876 -10.2532 EX 60 956 -4 30 5
1998295N12284 1998 89 NA NA MITCH 1998-11-09 12:00:00 ET 61.0000 -10.0000 60 956 hurdat_atl main 347 347 O_____________ hurdat_atl AL131998 61.0000 -10.0000 EX 60 956 -4 30 20
1998295N12284 1998 89 NA NA MITCH 1998-11-09 15:00:00 ET 62.3363 -8.13090 main 392 389 P_____________ AL131998 62.3363 -8.13090 EX 57 958 -4 34 43
1998295N12284 1998 89 NA NA MITCH 1998-11-09 18:00:00 ET 63.5000 -5.00000 55 960 hurdat_atl main 443 O_____________ hurdat_atl AL131998 63.5000 -5.00000 EX 55 960 -4 36 50

About IBTrACS Database

This database is a web-friendly format of International Best Track Archive for Climate Stewardship (IBTrACS), a global best track data archive curated by NOAA dating back to 1842.

Updated: 2021-12-01